Airfield :
LOGIN :

Register | Disclaimer

   EN    FR    IT 

 










Legend :    VFR   Marginal VFR   IFR   Intensive IFR   Very Intensive IFR
Visi :
Ceiling :
>= 8 km
>= 3000ft
5 to 8 km
1000 to 3000 ft
1500m to 5 km
500 to 1000 ft
800 to 1500m
200 to 500 ft
< 800m
< 200 ft
Symbols :   Thunderstorms  Fog  Heavy snow  Heavy precipitations  Wind > 20 kt
SIGMETs :     Misc.  Thunderstorms  Icing  Turbulence  Mountain Waves  Volcanic Ashes






- Airport Elevation : 274 ft
- IATA code : PUY


LDPL - Pula

CURRENT METAR :
  • 030300Z 02003KT CAVOK 04/M04 Q1032

EXPIRED METARs :
  • 030230Z VRB01KT CAVOK 01/M04 Q1032
  • 030200Z VRB01KT CAVOK 01/M04 Q1032
  • 030130Z 01005KT CAVOK 03/M04 Q1032
  • 030100Z 01005KT CAVOK 04/M04 Q1032
  • 030030Z 02005KT CAVOK 05/M03 Q1032

TAF TAF LDPL
Valid from the 03 at 00:00 until the 04 at 00:00 UTC


022325Z 0300/0400 30005KT CAVOK TX15/0312Z TN05/0303Z
BECMG 0308/0310 29010KT
BECMG 0316/0318 29004KT



MET'MAP, your aeronautical weather chart ! - Copyright ORBIFLY December 2007 - Disclaimer

ORBIFLY MET'MAP TEAM :

Programming & Development : Alexandra Zaïnal
Concept & original design : Baudouin d'Aumeries
Assistance for programming : Marc-Olivier Méhu
Technical & hardware support : Manuel Goepfert

Contact : metmap@orbifly.com




SOURCES & CREDITS :

   NOAA